Time;durP1;ratioP1;P1;durP2;ratioP2;P2;SDS_P1;SDS_P2;PMS_P1;PMS_P2;Temp;Humidity;BMP_temperature;BMP_pressure;BME280_temperature;BME280_humidity;BME280_pressure;Samples;Min_cycle;Max_cycle;Signal;HPM_P1;HPM_P2
2022/10/29 00:00:09;;;;;;;;;;;19.40;70.40;;;;;;5154251;27;19958;-66
2022/10/29 00:02:34;;;;;;;;;;;19.40;70.40;;;;;;5135661;27;20021;-66
2022/10/29 00:05:00;;;;;;;;;;;19.40;70.50;;;;;;5135607;27;20386;-66
2022/10/29 00:07:25;;;;;;;;;;;19.40;70.50;;;;;;5135613;27;19923;-67
2022/10/29 00:09:51;;;;;;;;;;;19.50;70.50;;;;;;5135560;27;19919;-66
2022/10/29 00:12:16;;;;;;;;;;;19.40;70.50;;;;;;5135563;27;19919;-67
2022/10/29 00:14:41;;;;;;;;;;;19.40;70.50;;;;;;5135735;27;19922;-66
2022/10/29 00:17:07;;;;;;;;;;;19.40;70.50;;;;;;5153419;27;20382;-66
2022/10/29 00:19:33;;;;;;;;;;;19.30;70.40;;;;;;5135412;27;19919;-66
2022/10/29 00:21:58;;;;;;;;;;;19.30;70.40;;;;;;5134606;27;19923;-66
2022/10/29 00:24:23;;;;;;;;;;;19.40;70.50;;;;;;5153632;27;19926;-66
2022/10/29 00:26:49;;;;;;;;;;;19.30;70.40;;;;;;5135771;27;20028;-66
2022/10/29 00:29:15;;;;;;;;;;;19.40;70.40;;;;;;5135265;27;19923;-67
2022/10/29 00:31:40;;;;;;;;;;;19.30;70.40;;;;;;5154103;27;19970;-66
2022/10/29 00:34:06;;;;;;;;;;;19.40;70.50;;;;;;5154050;27;19919;-66
2022/10/29 00:36:31;;;;;;;;;;;19.30;70.40;;;;;;5153948;27;19919;-66
2022/10/29 00:38:57;;;;;;;;;;;19.30;70.40;;;;;;5153928;27;20371;-67
2022/10/29 00:41:25;;;;;;;;;;;19.30;70.40;;;;;;5153717;27;19930;-66
2022/10/29 00:43:52;;;;;;;;;;;19.30;70.40;;;;;;5138447;27;19923;-66
2022/10/29 00:49:01;;;;;;;;;;;19.30;70.40;;;;;;5110367;27;19919;-66
2022/10/29 00:51:28;;;;;;;;;;;19.30;70.30;;;;;;5109269;28;20011;-66
2022/10/29 00:53:57;;;;;;;;;;;19.30;70.40;;;;;;5108955;28;19920;-66
2022/10/29 00:56:23;;;;;;;;;;;19.30;70.30;;;;;;5109051;28;19950;-66
2022/10/29 00:58:49;;;;;;;;;;;19.20;70.30;;;;;;5108889;28;20359;-66
2022/10/29 01:01:15;;;;;;;;;;;19.30;70.40;;;;;;5108973;28;19927;-66
2022/10/29 01:03:40;;;;;;;;;;;19.20;70.30;;;;;;5108804;28;19965;-66
2022/10/29 01:06:06;;;;;;;;;;;19.30;70.40;;;;;;5109000;28;19927;-66
2022/10/29 01:08:32;;;;;;;;;;;19.20;70.40;;;;;;5108585;28;19981;-66
2022/10/29 01:11:17;;;;;;;;;;;19.20;70.40;;;;;;5108880;28;20283;-66
2022/10/29 01:13:54;;;;;;;;;;;19.20;70.30;;;;;;5108457;28;19920;-66
2022/10/29 01:19:04;;;;;;;;;;;19.20;70.30;;;;;;5089891;28;19932;-66
2022/10/29 01:24:25;;;;;;;;;;;19.20;70.30;;;;;;5089944;28;19935;-70
2022/10/29 01:29:40;;;;;;;;;;;19.20;70.30;;;;;;5089965;28;19912;-66
2022/10/29 01:40:24;;;;;;;;;;;19.10;70.20;;;;;;5089878;28;20384;-66
2022/10/29 01:42:52;;;;;;;;;;;19.10;70.20;;;;;;5088386;28;20012;-66
2022/10/29 01:45:22;;;;;;;;;;;19.20;70.30;;;;;;5088539;28;20415;-66
2022/10/29 01:48:07;;;;;;;;;;;19.10;70.20;;;;;;5088424;28;19927;-66
2022/10/29 01:50:34;;;;;;;;;;;19.20;70.30;;;;;;5088186;28;19920;-66
2022/10/29 01:53:02;;;;;;;;;;;19.10;70.20;;;;;;5088573;28;19924;-66
2022/10/29 01:55:28;;;;;;;;;;;19.10;70.20;;;;;;5088564;28;19990;-66
2022/10/29 01:57:54;;;;;;;;;;;19.10;70.20;;;;;;5105134;28;19920;-66
2022/10/29 02:00:20;;;;;;;;;;;19.00;70.10;;;;;;5089641;28;19974;-66
2022/10/29 02:03:05;;;;;;;;;;;19.10;70.20;;;;;;5088119;28;20526;-66
2022/10/29 02:05:37;;;;;;;;;;;19.00;70.10;;;;;;5087891;28;19978;-66
2022/10/29 02:08:11;;;;;;;;;;;19.10;70.20;;;;;;5089226;28;19927;-66
2022/10/29 02:13:19;;;;;;;;;;;19.00;70.10;;;;;;5090139;28;20402;-66
2022/10/29 02:15:48;;;;;;;;;;;19.10;70.20;;;;;;5088517;28;19970;-66
2022/10/29 02:18:14;;;;;;;;;;;19.00;70.10;;;;;;5088483;28;19924;-66
2022/10/29 02:20:41;;;;;;;;;;;19.00;70.10;;;;;;5088760;28;19935;-66
2022/10/29 02:23:06;;;;;;;;;;;19.00;70.20;;;;;;5089696;28;19989;-66
2022/10/29 02:25:32;;;;;;;;;;;19.00;70.10;;;;;;5089696;28;20376;-66
2022/10/29 02:27:57;;;;;;;;;;;19.00;70.10;;;;;;5089565;28;20440;-66
2022/10/29 02:30:23;;;;;;;;;;;19.00;70.10;;;;;;5088578;28;19921;-66
2022/10/29 02:32:48;;;;;;;;;;;19.00;70.10;;;;;;5088296;28;19928;-66
2022/10/29 02:35:14;;;;;;;;;;;19.00;70.10;;;;;;5089368;28;20364;-66
2022/10/29 02:37:39;;;;;;;;;;;19.00;70.10;;;;;;5088187;28;20300;-66
2022/10/29 02:40:05;;;;;;;;;;;19.00;70.10;;;;;;5088374;28;19927;-66
2022/10/29 02:42:31;;;;;;;;;;;18.90;70.00;;;;;;5089506;28;20326;-66
2022/10/29 02:44:56;;;;;;;;;;;18.90;70.00;;;;;;5088091;28;20430;-66
2022/10/29 02:47:22;;;;;;;;;;;19.00;70.10;;;;;;5087987;28;19935;-66
2022/10/29 02:49:47;;;;;;;;;;;18.90;70.80;;;;;;5089154;28;19924;-66
2022/10/29 02:52:13;;;;;;;;;;;18.90;70.00;;;;;;5089388;28;19978;-66
2022/10/29 02:54:38;;;;;;;;;;;18.90;70.00;;;;;;5087810;28;19932;-66
2022/10/29 02:57:04;;;;;;;;;;;18.90;70.00;;;;;;5088181;28;19934;-66
2022/10/29 02:59:30;;;;;;;;;;;18.90;70.00;;;;;;5089129;28;20394;-66
2022/10/29 03:01:55;;;;;;;;;;;18.90;70.00;;;;;;5088994;28;20386;-66
2022/10/29 03:04:21;;;;;;;;;;;18.90;70.00;;;;;;5088913;28;19987;-66
2022/10/29 03:06:46;;;;;;;;;;;18.80;69.90;;;;;;5088848;28;19926;-66
2022/10/29 03:09:12;;;;;;;;;;;18.90;70.00;;;;;;5088803;28;20032;-66
2022/10/29 03:11:37;;;;;;;;;;;18.90;70.00;;;;;;5088533;28;19925;-66
2022/10/29 03:14:03;;;;;;;;;;;18.90;70.00;;;;;;5087862;28;19977;-66
2022/10/29 03:16:28;;;;;;;;;;;18.80;69.90;;;;;;5088681;28;19931;-66
2022/10/29 03:18:54;;;;;;;;;;;18.80;69.90;;;;;;5088629;28;19927;-66
2022/10/29 03:21:19;;;;;;;;;;;18.80;69.90;;;;;;5087571;28;19921;-66
2022/10/29 03:23:45;;;;;;;;;;;18.80;69.90;;;;;;5078942;28;20387;-67
2022/10/29 03:26:10;;;;;;;;;;;18.80;69.90;;;;;;5073707;28;20372;-66
2022/10/29 03:28:36;;;;;;;;;;;18.80;69.90;;;;;;5075016;28;20007;-66
2022/10/29 03:31:01;;;;;;;;;;;18.80;69.90;;;;;;5073693;28;19920;-66
2022/10/29 03:33:27;;;;;;;;;;;18.80;69.90;;;;;;5074978;28;19931;-66
2022/10/29 03:35:55;;;;;;;;;;;18.80;69.90;;;;;;5074861;28;19974;-66
2022/10/29 03:38:20;;;;;;;;;;;18.80;69.90;;;;;;5074846;28;19990;-66
2022/10/29 03:40:46;;;;;;;;;;;18.80;69.90;;;;;;5073411;28;19921;-66
2022/10/29 03:43:11;;;;;;;;;;;18.80;69.90;;;;;;5073461;28;19921;-66
2022/10/29 03:45:36;;;;;;;;;;;18.80;69.90;;;;;;5073368;28;19967;-66
2022/10/29 03:48:03;;;;;;;;;;;19.90;70.50;;;;;;5074746;28;19924;-66
2022/10/29 03:50:28;;;;;;;;;;;18.80;69.80;;;;;;5072709;28;19924;-66
2022/10/29 03:52:54;;;;;;;;;;;18.70;69.80;;;;;;5074351;28;19931;-66
2022/10/29 03:55:19;;;;;;;;;;;18.70;69.70;;;;;;5073441;28;19927;-66
2022/10/29 03:57:45;;;;;;;;;;;18.70;70.50;;;;;;5074431;28;20011;-66
2022/10/29 04:00:10;;;;;;;;;;;18.70;69.80;;;;;;5073233;28;19970;-66
2022/10/29 04:02:36;;;;;;;;;;;18.70;69.80;;;;;;5074311;28;19920;-66
2022/10/29 04:05:02;;;;;;;;;;;18.70;69.80;;;;;;5074321;28;19978;-66
2022/10/29 04:07:27;;;;;;;;;;;18.70;69.80;;;;;;5074107;28;19971;-66
2022/10/29 04:09:52;;;;;;;;;;;18.70;69.80;;;;;;5073224;28;19921;-66
2022/10/29 04:12:18;;;;;;;;;;;18.70;69.80;;;;;;5072762;28;19935;-66
2022/10/29 04:14:44;;;;;;;;;;;18.70;69.90;;;;;;5074150;28;20372;-66
2022/10/29 04:17:10;;;;;;;;;;;18.70;69.80;;;;;;5072771;28;19964;-66
2022/10/29 04:19:36;;;;;;;;;;;18.70;69.80;;;;;;5072071;28;20364;-66
2022/10/29 04:22:01;;;;;;;;;;;18.70;69.80;;;;;;5073804;28;19920;-66
2022/10/29 04:24:27;;;;;;;;;;;18.60;69.80;;;;;;5072694;28;19921;-66
2022/10/29 04:26:52;;;;;;;;;;;18.60;69.80;;;;;;5072634;28;19985;-66
2022/10/29 04:29:18;;;;;;;;;;;18.60;69.80;;;;;;5074241;28;19931;-66
2022/10/29 04:31:43;;;;;;;;;;;18.60;69.80;;;;;;5073790;28;19925;-66
2022/10/29 04:34:09;;;;;;;;;;;18.70;69.90;;;;;;5072454;28;19921;-66
2022/10/29 04:36:34;;;;;;;;;;;18.60;69.80;;;;;;5071965;28;20288;-66
2022/10/29 04:39:00;;;;;;;;;;;18.60;69.80;;;;;;5072629;28;19921;-66
2022/10/29 04:41:26;;;;;;;;;;;18.60;69.90;;;;;;5073674;28;20372;-66
2022/10/29 04:43:51;;;;;;;;;;;18.60;69.80;;;;;;5072489;28;20445;-66
2022/10/29 04:46:17;;;;;;;;;;;18.60;69.80;;;;;;5072724;28;19920;-66
2022/10/29 04:48:42;;;;;;;;;;;18.60;69.80;;;;;;5073598;28;20292;-66
2022/10/29 04:51:17;;;;;;;;;;;18.60;69.80;;;;;;5073392;28;19935;-66
2022/10/29 04:53:42;;;;;;;;;;;18.50;69.80;;;;;;5073800;28;20162;-66
2022/10/29 04:56:07;;;;;;;;;;;18.60;69.80;;;;;;5072394;28;19983;-66
2022/10/29 04:58:33;;;;;;;;;;;18.60;69.80;;;;;;5071245;28;20391;-66
2022/10/29 05:01:00;;;;;;;;;;;18.60;69.80;;;;;;5072001;28;19964;-66
2022/10/29 05:03:26;;;;;;;;;;;18.60;69.80;;;;;;5073164;28;20009;-66
2022/10/29 05:05:51;;;;;;;;;;;18.50;69.80;;;;;;5071898;28;20403;-66
2022/10/29 05:08:17;;;;;;;;;;;18.50;69.80;;;;;;5071714;28;19926;-66
2022/10/29 05:10:42;;;;;;;;;;;18.60;69.80;;;;;;5073020;28;19925;-66
2022/10/29 05:13:10;;;;;;;;;;;18.50;69.80;;;;;;5072744;28;20019;-66
2022/10/29 05:15:35;;;;;;;;;;;18.50;69.80;;;;;;5071569;28;19928;-66
2022/10/29 05:18:01;;;;;;;;;;;18.50;69.80;;;;;;5073093;28;19925;-66
2022/10/29 05:20:27;;;;;;;;;;;18.50;69.80;;;;;;5072818;28;20019;-66
2022/10/29 05:23:09;;;;;;;;;;;18.50;69.80;;;;;;5071866;28;20011;-66
2022/10/29 05:25:35;;;;;;;;;;;18.50;69.80;;;;;;5071507;28;19967;-66
2022/10/29 05:28:10;;;;;;;;;;;18.50;69.80;;;;;;5071830;28;19935;-66
2022/10/29 05:30:36;;;;;;;;;;;18.40;70.50;;;;;;5072560;28;20011;-66
2022/10/29 05:33:04;;;;;;;;;;;18.50;69.80;;;;;;5071289;28;20008;-66
2022/10/29 05:35:30;;;;;;;;;;;18.50;69.80;;;;;;5071365;28;19928;-66
2022/10/29 05:37:56;;;;;;;;;;;18.50;69.80;;;;;;5071285;28;19920;-66
2022/10/29 05:40:22;;;;;;;;;;;18.50;69.80;;;;;;5071552;28;19921;-66
2022/10/29 05:42:47;;;;;;;;;;;18.50;69.80;;;;;;5072582;28;20299;-66
2022/10/29 05:45:13;;;;;;;;;;;18.50;69.80;;;;;;5072526;28;19921;-66
2022/10/29 05:47:39;;;;;;;;;;;18.50;69.80;;;;;;5071282;28;19924;-66
2022/10/29 05:50:04;;;;;;;;;;;18.40;69.80;;;;;;5072488;28;19920;-66
2022/10/29 05:52:30;;;;;;;;;;;18.50;69.80;;;;;;5072343;28;20257;-66
2022/10/29 05:54:56;;;;;;;;;;;18.50;69.80;;;;;;5072288;28;19959;-66
2022/10/29 05:57:21;;;;;;;;;;;18.50;69.80;;;;;;5072412;28;20337;-66
2022/10/29 05:59:47;;;;;;;;;;;18.50;69.90;;;;;;5072315;28;20357;-66
2022/10/29 06:02:12;;;;;;;;;;;18.50;69.80;;;;;;5072365;28;19942;-66
2022/10/29 06:04:38;;;;;;;;;;;18.50;69.80;;;;;;5072302;28;20350;-66
2022/10/29 06:07:03;;;;;;;;;;;18.40;69.80;;;;;;5072193;28;19924;-66
2022/10/29 06:09:29;;;;;;;;;;;18.40;69.80;;;;;;5071238;28;19924;-66
2022/10/29 06:11:55;;;;;;;;;;;18.20;69.70;;;;;;5070624;28;19983;-66
2022/10/29 06:14:20;;;;;;;;;;;18.40;69.80;;;;;;5072242;28;19920;-66
2022/10/29 06:16:46;;;;;;;;;;;18.40;69.80;;;;;;5071117;28;20011;-66
2022/10/29 06:19:11;;;;;;;;;;;18.50;69.80;;;;;;5071142;28;19928;-66
2022/10/29 06:21:37;;;;;;;;;;;18.40;69.80;;;;;;5070825;28;20011;-66
2022/10/29 06:24:02;;;;;;;;;;;18.40;69.80;;;;;;5071015;28;19924;-66
2022/10/29 06:26:28;;;;;;;;;;;18.40;69.80;;;;;;5070751;28;19928;-66
2022/10/29 06:28:53;;;;;;;;;;;18.40;69.80;;;;;;5071113;28;19982;-66
2022/10/29 06:31:19;;;;;;;;;;;18.40;69.90;;;;;;5072036;28;20295;-66
2022/10/29 06:33:44;;;;;;;;;;;18.40;69.90;;;;;;5070753;28;20376;-66
2022/10/29 06:36:10;;;;;;;;;;;18.40;69.80;;;;;;5070954;28;19921;-66
2022/10/29 06:38:35;;;;;;;;;;;18.40;69.80;;;;;;5070984;28;19920;-66
2022/10/29 06:41:01;;;;;;;;;;;18.40;69.80;;;;;;5071134;28;20368;-66
2022/10/29 06:43:26;;;;;;;;;;;18.40;69.80;;;;;;5070954;28;20486;-66
2022/10/29 06:45:52;;;;;;;;;;;18.40;69.80;;;;;;5070981;28;19927;-66
2022/10/29 06:48:17;;;;;;;;;;;18.40;69.80;;;;;;5070556;28;19920;-66
2022/10/29 06:50:43;;;;;;;;;;;18.40;69.80;;;;;;5071903;28;19920;-66
2022/10/29 06:53:11;;;;;;;;;;;18.30;69.80;;;;;;5069612;28;19929;-66
2022/10/29 06:55:36;;;;;;;;;;;18.40;69.80;;;;;;5070677;28;19955;-66
2022/10/29 06:58:03;;;;;;;;;;;18.30;69.80;;;;;;5071317;28;19959;-66
2022/10/29 07:00:29;;;;;;;;;;;18.40;69.80;;;;;;5075708;28;20391;-66
2022/10/29 07:02:55;;;;;;;;;;;18.40;69.80;;;;;;5074425;28;19966;-66
2022/10/29 07:05:21;;;;;;;;;;;18.30;69.80;;;;;;5075478;28;20291;-66
2022/10/29 07:07:47;;;;;;;;;;;18.40;69.80;;;;;;5074032;28;19920;-66
2022/10/29 07:10:12;;;;;;;;;;;18.40;69.80;;;;;;5075352;28;20007;-66
2022/10/29 07:12:39;;;;;;;;;;;18.40;69.90;;;;;;5073740;28;20355;-66
2022/10/29 07:15:05;;;;;;;;;;;18.40;69.80;;;;;;5074023;28;19920;-66
2022/10/29 07:17:30;;;;;;;;;;;18.20;69.70;;;;;;5075201;28;20185;-66
2022/10/29 07:19:56;;;;;;;;;;;18.30;69.80;;;;;;5075301;28;19963;-67
2022/10/29 07:22:21;;;;;;;;;;;18.30;69.80;;;;;;5075597;28;20129;-66
2022/10/29 07:24:47;;;;;;;;;;;18.30;69.80;;;;;;5074058;28;19982;-66
2022/10/29 07:27:12;;;;;;;;;;;18.30;69.80;;;;;;5074049;28;19931;-66
2022/10/29 07:29:38;;;;;;;;;;;18.30;69.80;;;;;;5075212;28;19924;-66
2022/10/29 07:32:04;;;;;;;;;;;18.30;69.80;;;;;;5073835;28;19925;-66
2022/10/29 07:34:29;;;;;;;;;;;18.30;69.80;;;;;;5073686;28;19927;-66
2022/10/29 07:36:55;;;;;;;;;;;18.30;69.80;;;;;;5073958;28;20415;-66
2022/10/29 07:39:21;;;;;;;;;;;18.30;69.80;;;;;;5074792;28;19928;-66
2022/10/29 07:41:47;;;;;;;;;;;18.30;69.80;;;;;;5073775;28;20013;-66
2022/10/29 07:44:12;;;;;;;;;;;18.30;69.80;;;;;;5073379;28;20387;-66
2022/10/29 07:46:38;;;;;;;;;;;18.30;69.80;;;;;;5074897;28;19926;-66
2022/10/29 07:49:03;;;;;;;;;;;18.30;69.80;;;;;;5073327;28;19946;-66
2022/10/29 07:51:29;;;;;;;;;;;18.30;69.80;;;;;;5073620;28;20027;-67
2022/10/29 07:53:54;;;;;;;;;;;18.30;69.80;;;;;;5073277;28;19927;-66
2022/10/29 07:56:20;;;;;;;;;;;18.30;69.80;;;;;;5073602;28;19920;-66
2022/10/29 07:58:45;;;;;;;;;;;18.30;69.80;;;;;;5074409;28;19978;-66
2022/10/29 08:01:11;;;;;;;;;;;18.30;69.70;;;;;;5073553;28;20361;-66
2022/10/29 08:03:36;;;;;;;;;;;18.30;69.80;;;;;;5074587;28;20372;-66
2022/10/29 08:06:02;;;;;;;;;;;18.30;69.80;;;;;;5072964;28;19951;-66
2022/10/29 08:08:27;;;;;;;;;;;18.30;69.80;;;;;;5073444;28;19920;-67
2022/10/29 08:10:57;;;;;;;;;;;18.30;69.80;;;;;;5072648;28;20498;-66
2022/10/29 08:13:23;;;;;;;;;;;18.30;69.80;;;;;;5072937;28;19924;-66
2022/10/29 08:15:48;;;;;;;;;;;18.30;69.80;;;;;;5072853;28;19927;-66
2022/10/29 08:18:15;;;;;;;;;;;18.30;69.80;;;;;;5072521;28;20176;-66
2022/10/29 08:20:40;;;;;;;;;;;18.30;69.80;;;;;;5072690;28;19927;-67
2022/10/29 08:23:06;;;;;;;;;;;18.30;69.80;;;;;;5072809;28;19921;-66
2022/10/29 08:25:31;;;;;;;;;;;18.30;69.80;;;;;;5073369;28;19920;-66
2022/10/29 08:27:58;;;;;;;;;;;18.30;69.80;;;;;;5072583;28;19928;-67
2022/10/29 08:30:23;;;;;;;;;;;18.30;69.80;;;;;;5072547;28;20003;-66
2022/10/29 08:32:49;;;;;;;;;;;18.30;69.80;;;;;;5072500;28;20007;-66
2022/10/29 08:35:14;;;;;;;;;;;18.30;69.70;;;;;;5073762;28;19925;-66
2022/10/29 08:37:41;;;;;;;;;;;18.30;69.80;;;;;;5072782;28;20292;-66
2022/10/29 08:40:11;;;;;;;;;;;18.30;69.80;;;;;;5072702;28;19991;-66
2022/10/29 08:42:57;;;;;;;;;;;18.30;69.80;;;;;;5072314;28;20007;-66
2022/10/29 08:45:24;;;;;;;;;;;18.30;69.80;;;;;;5072280;28;20399;-66
2022/10/29 08:48:10;;;;;;;;;;;18.30;69.80;;;;;;5072302;28;20042;-66
2022/10/29 08:50:39;;;;;;;;;;;18.30;69.80;;;;;;5072212;28;20008;-66
2022/10/29 08:53:13;;;;;;;;;;;18.30;69.80;;;;;;5073351;28;19964;-66
2022/10/29 08:55:39;;;;;;;;;;;18.30;69.80;;;;;;5073436;28;19924;-66
2022/10/29 08:58:25;;;;;;;;;;;18.30;69.70;;;;;;5073351;28;19920;-66
2022/10/29 09:00:54;;;;;;;;;;;18.30;69.70;;;;;;5071703;28;20384;-66
2022/10/29 09:03:20;;;;;;;;;;;18.30;69.70;;;;;;5072292;28;20393;-66
2022/10/29 09:19:48;;;;;;;;;;;18.30;69.70;;;;;;5089969;28;19919;-66
2022/10/29 09:22:26;;;;;;;;;;;18.30;69.80;;;;;;5088401;28;20407;-66
2022/10/29 09:25:11;;;;;;;;;;;18.30;69.80;;;;;;5088548;28;20349;-66
2022/10/29 09:27:57;;;;;;;;;;;18.30;69.80;;;;;;5088640;28;19921;-66
2022/10/29 09:30:22;;;;;;;;;;;18.30;69.80;;;;;;5105177;28;19928;-66
2022/10/29 09:35:35;;;;;;;;;;;18.30;69.80;;;;;;5110320;27;20371;-66
2022/10/29 09:38:07;;;;;;;;;;;18.30;69.80;;;;;;5108918;28;19927;-66
2022/10/29 09:40:35;;;;;;;;;;;18.30;69.80;;;;;;5108938;28;19919;-66
2022/10/29 09:43:05;;;;;;;;;;;18.30;69.80;;;;;;5109058;28;20290;-66
2022/10/29 09:45:51;;;;;;;;;;;18.30;69.70;;;;;;5109110;28;20010;-66
2022/10/29 09:48:20;;;;;;;;;;;18.30;69.80;;;;;;5108881;28;20344;-66
2022/10/29 09:53:26;;;;;;;;;;;18.30;69.70;;;;;;5089936;28;19940;-66
2022/10/29 09:55:53;;;;;;;;;;;18.30;69.80;;;;;;5088789;28;19920;-67
2022/10/29 09:58:21;;;;;;;;;;;18.40;69.80;;;;;;5088410;28;19970;-66
2022/10/29 10:00:47;;;;;;;;;;;18.40;69.70;;;;;;5090261;28;19921;-66
2022/10/29 10:03:33;;;;;;;;;;;18.30;69.80;;;;;;5088919;28;19947;-66
2022/10/29 10:09:00;;;;;;;;;;;18.40;69.80;;;;;;5110156;27;19911;-67
2022/10/29 10:11:34;;;;;;;;;;;18.40;69.90;;;;;;5108886;28;19967;-67
2022/10/29 10:14:04;;;;;;;;;;;18.40;69.80;;;;;;5108907;28;19962;-67
2022/10/29 10:16:31;;;;;;;;;;;18.40;69.80;;;;;;5109228;28;19920;-66
2022/10/29 10:18:57;;;;;;;;;;;18.30;69.90;;;;;;5108748;28;20268;-67
2022/10/29 10:21:24;;;;;;;;;;;18.40;70.00;;;;;;5109072;28;19969;-66
2022/10/29 10:23:51;;;;;;;;;;;18.40;69.80;;;;;;5110197;28;20279;-67
2022/10/29 10:26:38;;;;;;;;;;;18.40;69.90;;;;;;5108879;28;19920;-66
2022/10/29 10:29:08;;;;;;;;;;;18.40;70.00;;;;;;5109760;28;19963;-66
2022/10/29 10:31:33;;;;;;;;;;;18.40;69.90;;;;;;5108583;28;20423;-66
2022/10/29 10:34:06;;;;;;;;;;;18.40;70.00;;;;;;5109670;28;20023;-67
2022/10/29 10:36:32;;;;;;;;;;;18.40;69.90;;;;;;5108535;28;20122;-66
2022/10/29 10:38:58;;;;;;;;;;;18.40;70.00;;;;;;5143113;27;19920;-66
2022/10/29 10:41:33;;;;;;;;;;;18.40;70.10;;;;;;5109677;28;19920;-66
2022/10/29 10:44:00;;;;;;;;;;;18.40;70.00;;;;;;5108294;28;20379;-66
2022/10/29 10:46:27;;;;;;;;;;;18.50;70.10;;;;;;5108270;28;19920;-66
2022/10/29 10:49:13;;;;;;;;;;;18.40;70.10;;;;;;5108575;28;19926;-66
2022/10/29 10:51:42;;;;;;;;;;;18.50;70.10;;;;;;5108031;28;19920;-67
2022/10/29 10:54:26;;;;;;;;;;;18.50;70.30;;;;;;5109431;28;19920;-66
2022/10/29 10:56:56;;;;;;;;;;;18.50;70.30;;;;;;5109413;28;20202;-66
2022/10/29 10:59:23;;;;;;;;;;;18.50;70.30;;;;;;5109336;28;20283;-66
2022/10/29 11:01:50;;;;;;;;;;;17.60;69.80;;;;;;5109317;28;19927;-66
2022/10/29 11:06:58;;;;;;;;;;;18.40;70.30;;;;;;5110134;27;19919;-67
2022/10/29 11:09:25;;;;;;;;;;;18.50;70.40;;;;;;5109274;28;19920;-66
2022/10/29 11:14:49;;;;;;;;;;;18.50;70.50;;;;;;5089961;28;19912;-67
2022/10/29 11:17:34;;;;;;;;;;;18.50;70.50;;;;;;5088656;28;20387;-66
2022/10/29 11:20:05;;;;;;;;;;;18.50;70.60;;;;;;5089556;28;19963;-66
2022/10/29 11:22:33;;;;;;;;;;;18.40;70.60;;;;;;5088999;28;19920;-66
2022/10/29 11:27:57;;;;;;;;;;;18.40;70.60;;;;;;5128113;27;1850914;-66
2022/10/29 11:30:23;;;;;;;;;;;18.40;70.80;;;;;;5174585;27;19986;-67
2022/10/29 11:35:40;;;;;;;;;;;18.50;70.80;;;;;;5110253;27;19912;-66
2022/10/29 11:40:57;;;;;;;;;;;18.50;70.70;;;;;;5089901;28;19944;-66
2022/10/29 11:43:23;;;;;;;;;;;18.50;70.50;;;;;;5088844;28;19970;-66
2022/10/29 11:46:09;;;;;;;;;;;18.50;70.40;;;;;;5090071;28;20356;-66
2022/10/29 11:53:59;;;;;;;;;;;18.50;70.30;;;;;;5130798;27;19915;-66
2022/10/29 11:56:45;;;;;;;;;;;18.60;70.30;;;;;;5164284;27;19972;-66
2022/10/29 12:02:26;;;;;;;;;;;18.50;70.30;;;;;;5110234;27;19912;-66
2022/10/29 12:07:55;;;;;;;;;;;18.50;70.30;;;;;;5089846;28;19912;-66
2022/10/29 12:10:27;;;;;;;;;;;18.60;70.30;;;;;;5088644;28;19967;-66
2022/10/29 12:15:58;;;;;;;;;;;18.50;70.30;;;;;;5090008;28;19912;-66
2022/10/29 12:18:30;;;;;;;;;;;18.50;70.30;;;;;;5088857;28;19920;-66
2022/10/29 12:21:01;;;;;;;;;;;18.50;70.30;;;;;;5088822;28;19920;-66
2022/10/29 12:23:33;;;;;;;;;;;18.50;70.40;;;;;;5087346;28;20007;-66
2022/10/29 12:29:00;;;;;;;;;;;18.60;70.40;;;;;;5127506;27;1866288;-66
2022/10/29 12:34:15;;;;;;;;;;;18.50;70.40;;;;;;5089849;28;19913;-66
2022/10/29 12:36:53;;;;;;;;;;;18.60;70.30;;;;;;5088691;28;20390;-66
2022/10/29 12:39:28;;;;;;;;;;;18.50;70.30;;;;;;5088801;28;19927;-66
2022/10/29 12:41:56;;;;;;;;;;;18.60;70.40;;;;;;5088675;28;19924;-66
2022/10/29 12:47:22;;;;;;;;;;;18.60;70.40;;;;;;5090072;28;19919;-66
2022/10/29 12:52:42;;;;;;;;;;;18.60;70.40;;;;;;5110288;27;19912;-66
2022/10/29 12:55:09;;;;;;;;;;;18.60;70.40;;;;;;5110371;28;20294;-66
2022/10/29 12:57:35;;;;;;;;;;;18.60;70.40;;;;;;5110214;28;19920;-66
2022/10/29 13:00:20;;;;;;;;;;;18.70;70.50;;;;;;5110226;28;20298;-66
2022/10/29 13:02:46;;;;;;;;;;;18.60;70.50;;;;;;5108948;28;20330;-66
2022/10/29 13:05:12;;;;;;;;;;;18.60;70.50;;;;;;5109001;28;19920;-66
2022/10/29 13:18:47;;;;;;;;;;;18.60;70.80;;;;;;5110287;27;20372;-66
2022/10/29 13:21:33;;;;;;;;;;;18.60;70.70;;;;;;5108986;28;19927;-66
2022/10/29 13:24:02;;;;;;;;;;;18.60;70.70;;;;;;5108766;28;19974;-66
2022/10/29 13:26:48;;;;;;;;;;;18.60;70.70;;;;;;5108803;28;20027;-66
2022/10/29 13:29:36;;;;;;;;;;;18.60;70.70;;;;;;5108699;28;20372;-66
2022/10/29 13:32:01;;;;;;;;;;;18.60;70.70;;;;;;5109003;28;19924;-66
2022/10/29 13:34:47;;;;;;;;;;;18.60;70.70;;;;;;5143339;27;19920;-66
2022/10/29 13:37:32;;;;;;;;;;;18.60;70.80;;;;;;5108451;28;20367;-66
2022/10/29 13:40:18;;;;;;;;;;;18.60;70.80;;;;;;5109609;28;19920;-66
2022/10/29 13:42:43;;;;;;;;;;;18.60;70.80;;;;;;5108365;28;19924;-66
2022/10/29 13:45:10;;;;;;;;;;;18.60;70.80;;;;;;5109708;28;19920;-66
2022/10/29 13:47:38;;;;;;;;;;;18.60;70.80;;;;;;5109878;28;19920;-66
2022/10/29 13:50:04;;;;;;;;;;;18.60;70.80;;;;;;5109169;28;19971;-65
2022/10/29 13:52:34;;;;;;;;;;;18.70;70.90;;;;;;5108411;28;19982;-66
2022/10/29 13:55:04;;;;;;;;;;;18.60;70.80;;;;;;5107834;28;19920;-66
2022/10/29 14:02:53;;;;;;;;;;;18.70;70.80;;;;;;5107840;27;1853938;-66
2022/10/29 14:05:24;;;;;;;;;;;18.70;70.90;;;;;;5153534;27;20374;-67
2022/10/29 14:10:33;;;;;;;;;;;18.70;70.90;;;;;;5110324;27;19944;-66
2022/10/29 14:13:10;;;;;;;;;;;18.70;70.90;;;;;;5109195;28;19995;-66
2022/10/29 14:15:38;;;;;;;;;;;18.70;70.90;;;;;;5108907;28;20383;-66
2022/10/29 14:18:23;;;;;;;;;;;18.70;70.90;;;;;;5108978;28;20006;-65
2022/10/29 14:20:56;;;;;;;;;;;18.70;70.90;;;;;;5108591;28;20237;-66
2022/10/29 14:23:22;;;;;;;;;;;18.70;70.90;;;;;;5108678;28;19964;-66
2022/10/29 14:25:49;;;;;;;;;;;18.70;70.90;;;;;;5109128;28;19970;-66
2022/10/29 14:28:17;;;;;;;;;;;18.70;71.00;;;;;;5108520;28;19960;-66
2022/10/29 14:30:44;;;;;;;;;;;18.70;71.00;;;;;;5108890;28;19931;-66
2022/10/29 14:33:26;;;;;;;;;;;18.70;71.00;;;;;;5108872;28;19934;-66
2022/10/29 14:35:54;;;;;;;;;;;18.70;70.90;;;;;;5092112;28;19924;-66
2022/10/29 14:38:22;;;;;;;;;;;18.70;70.90;;;;;;5108501;28;19920;-66
2022/10/29 14:40:48;;;;;;;;;;;18.70;70.90;;;;;;5109837;28;19920;-66
2022/10/29 14:43:19;;;;;;;;;;;18.70;70.90;;;;;;5108644;28;20387;-66
2022/10/29 14:45:45;;;;;;;;;;;18.80;71.00;;;;;;5109669;28;19955;-66
2022/10/29 14:48:15;;;;;;;;;;;18.70;71.00;;;;;;5142684;27;20346;-66
2022/10/29 14:50:44;;;;;;;;;;;18.80;70.90;;;;;;5108301;28;19920;-67
2022/10/29 14:53:28;;;;;;;;;;;18.80;70.90;;;;;;5109616;28;20014;-66
2022/10/29 14:55:53;;;;;;;;;;;18.80;71.00;;;;;;5108135;28;20014;-66
2022/10/29 14:58:22;;;;;;;;;;;18.70;70.90;;;;;;5109741;28;20058;-66
2022/10/29 15:00:52;;;;;;;;;;;18.70;70.90;;;;;;5109290;28;19927;-66
2022/10/29 15:03:20;;;;;;;;;;;18.70;71.00;;;;;;5109529;28;19920;-66
2022/10/29 15:05:46;;;;;;;;;;;18.70;71.00;;;;;;5109368;28;19920;-66
2022/10/29 15:10:52;;;;;;;;;;;18.70;70.90;;;;;;5090076;28;19935;-66
2022/10/29 15:13:33;;;;;;;;;;;18.80;70.90;;;;;;5089723;28;19920;-66
2022/10/29 15:18:48;;;;;;;;;;;18.80;71.00;;;;;;5089844;28;19919;-66
2022/10/29 15:21:20;;;;;;;;;;;18.80;70.90;;;;;;5088995;28;20088;-66
2022/10/29 15:23:45;;;;;;;;;;;18.80;71.00;;;;;;5088803;28;19928;-66
2022/10/29 15:26:19;;;;;;;;;;;18.80;71.00;;;;;;5088543;28;20392;-66
2022/10/29 15:28:46;;;;;;;;;;;18.80;71.00;;;;;;5088747;28;19924;-66
2022/10/29 15:34:00;;;;;;;;;;;18.80;71.00;;;;;;5129607;27;1862713;-66
2022/10/29 15:36:25;;;;;;;;;;;18.80;71.00;;;;;;5174394;27;19971;-66
2022/10/29 15:41:34;;;;;;;;;;;18.80;71.00;;;;;;5127575;27;1864978;-66
2022/10/29 15:44:00;;;;;;;;;;;18.80;71.00;;;;;;5174691;27;20041;-66
2022/10/29 15:46:27;;;;;;;;;;;18.80;70.90;;;;;;5174754;27;20421;-66
2022/10/29 15:48:53;;;;;;;;;;;18.80;70.90;;;;;;5193072;27;19935;-66
2022/10/29 15:51:22;;;;;;;;;;;18.80;71.00;;;;;;5174391;27;20351;-66
2022/10/29 15:53:48;;;;;;;;;;;18.80;70.90;;;;;;5174608;27;19967;-66
2022/10/29 15:56:14;;;;;;;;;;;18.80;71.00;;;;;;5174132;27;19918;-66
2022/10/29 15:58:39;;;;;;;;;;;18.80;71.00;;;;;;5174218;27;19922;-66
2022/10/29 16:01:05;;;;;;;;;;;18.80;71.00;;;;;;5192773;27;20074;-66
2022/10/29 16:03:32;;;;;;;;;;;18.80;70.90;;;;;;5174422;27;19919;-66
2022/10/29 16:06:02;;;;;;;;;;;18.80;71.00;;;;;;5192719;27;19918;-66
2022/10/29 16:08:45;;;;;;;;;;;18.90;71.00;;;;;;5173956;27;20373;-66
2022/10/29 16:11:13;;;;;;;;;;;18.80;71.00;;;;;;5173851;27;20377;-66
2022/10/29 16:13:39;;;;;;;;;;;18.80;70.90;;;;;;5192657;27;19918;-66
2022/10/29 16:16:05;;;;;;;;;;;18.80;70.90;;;;;;5190093;27;19919;-66